Flight Track Log - Related Links

Times and Time Zones

All times are in EDT time to prevent confusion due to time zone crossing. See the SKW5631 flight status page for this flight to view local times or setup timezone preferences in your user account.

Time Position Orientation Groundspeed Altitude Reporting Facility
EDT Latitude Longitude Course Direction KTS MPH feet Rate Location/Type
Sun 10:49:07 PM 37.6106 -122.3478 105° East 152 175 1,100  Level Oakland Center
Sun 10:50:08 PM 37.5972 -122.2869 105° East 186 214 3,200 2,262 Climbing Oakland Center
Sun 10:51:09 PM 37.5719 -122.2119 113° Southeast 219 252 5,700 2,754 Climbing Oakland Center
Sun 10:52:10 PM 37.5131 -122.1642 147° Southeast 251 289 8,800 2,803 Climbing Oakland Center
Sun 10:53:11 PM 37.4500 -122.1136 148° Southeast 266 306 11,400 1,918 Climbing Oakland Center
Sun 10:54:12 PM 37.3800 -122.0547 146° Southeast 300 345 12,700 1,623 Climbing Oakland Center
Sun 10:55:13 PM 37.3025 -121.9897 146° Southeast 332 382 14,700 1,918 Climbing Oakland Center
Sun 10:56:14 PM 37.2236 -121.9253 147° Southeast 339 390 16,600 1,918 Climbing Oakland Center
Sun 10:57:15 PM 37.1406 -121.8603 148° Southeast 350 403 18,600 1,623 Climbing Oakland Center
Sun 10:58:16 PM 37.0556 -121.7886 146° Southeast 365 420 19,900 1,279 Climbing Oakland Center
Sun 10:59:17 PM 36.9675 -121.7167 147° Southeast 375 432 21,200 1,328 Climbing Oakland Center
Sun 11:00:18 PM 36.8856 -121.6314 140° Southeast 381 438 22,600 1,475 Climbing Oakland Center
Sun 11:01:19 PM 36.7919 -121.5344 140° Southeast 381 438 24,200 1,230 Climbing Oakland Center
Sun 11:02:20 PM 36.7089 -121.4511 141° Southeast 382 440 25,100 885 Climbing Oakland Center
Sun 11:03:21 PM 36.6239 -121.3669 142° Southeast 388 447 26,000 885 Climbing Oakland Center
Sun 11:04:22 PM 36.5383 -121.2806 141° Southeast 394 453 26,900 492 Climbing Oakland Center
Sun 11:05:23 PM 36.4494 -121.1947 142° Southeast 403 464 27,000 49 Climbing Oakland Center
Sun 11:06:24 PM 36.3589 -121.1017 140° Southeast 417 480 27,000  Level Oakland Center
Sun 11:07:25 PM 36.2664 -121.0083 141° Southeast 427 491 27,000  Level Oakland Center
Sun 11:08:26 PM 36.1719 -120.9167 142° Southeast 430 495 27,000  Level Oakland Center
Sun 11:09:27 PM 36.0792 -120.8244 141° Southeast 429 494 27,000  Level Oakland Center
Sun 11:10:28 PM 35.9669 -120.7133 141° Southeast 431 496 27,000  Level Oakland Center
Sun 11:11:29 PM 35.8731 -120.6211 141° Southeast 431 496 27,000  Level Oakland Center
Sun 11:12:30 PM 35.7789 -120.5294 142° Southeast 431 496 27,000  Level Oakland Center
Sun 11:13:31 PM 35.6842 -120.4375 142° Southeast 432 497 27,000  Level Oakland Center
Sun 11:14:32 PM 35.5889 -120.3447 142° Southeast 433 498 27,000  Level Oakland Center
Sun 11:15:33 PM 35.4908 -120.2514 142° Southeast 436 502 27,000  Level Oakland Center
Sun 11:16:34 PM 35.3936 -120.1558 141° Southeast 437 503 27,000  Level Oakland Center
Sun 11:17:35 PM 35.2967 -120.0617 142° Southeast 439 505 27,000  Level Oakland Center
Sun 11:17:53 PM 35.2775 -120.0428 141° Southeast 440 506 27,000 -759 Level Los Angeles Center
Sun 11:18:54 PM 35.1814 -119.9497 142° Southeast 440 506 26,000 -1,672 Descending Los Angeles Center
Sun 11:19:55 PM 35.0861 -119.8553 141° Southeast 440 506 23,600 -2,390 Descending Los Angeles Center
Sun 11:20:57 PM 35.0025 -119.7411 132° Southeast 452 520 21,100 -2,683 Descending Los Angeles Center
Sun 11:21:58 PM 34.9056 -119.6119 132° Southeast 429 494 18,100 -2,410 Descending Los Angeles Center
Sun 11:22:59 PM 34.8339 -119.5158 132° Southeast 386 444 16,200 -1,805 Descending Los Angeles Center
Sun 11:24:01 PM 34.7706 -119.4308 132° Southeast 341 392 14,400 -1,707 Descending Los Angeles Center
Sun 11:25:02 PM 34.7111 -119.3511 132° Southeast 321 369 12,700 -1,366 Descending Los Angeles Center
Sun 11:26:04 PM 34.6533 -119.2733 132° Southeast 311 358 11,600 -829 Descending Los Angeles Center
Sun 11:27:05 PM 34.5903 -119.1906 133° Southeast 302 348 11,000 -683 Descending Los Angeles Center
Sun 11:28:07 PM 34.5367 -119.1214 133° Southeast 289 333 10,200 -976 Descending Los Angeles Center
Sun 11:29:08 PM 34.4853 -119.0519 132° Southeast 272 313 9,000 -896 Descending Los Angeles Center
Sun 11:30:21 PM 34.4361 -118.9861 132° Southeast 264 304 8,200 -533 Descending Los Angeles Center
Sun 11:31:23 PM 34.3772 -118.9064 132° Southeast 263 303 7,800 -677 Descending Los Angeles Center
Sun 11:32:25 PM 34.3339 -118.8358 127° Southeast 261 300 6,800 -976 Descending Los Angeles Center
Sun 11:33:26 PM 34.2936 -118.7706 127° Southeast 246 283 5,800 -1,024 Descending Los Angeles Center
Sun 11:34:28 PM 34.2533 -118.7028 126° Southeast 246 283 4,700 -878 Descending Los Angeles Center
Sun 11:35:29 PM 34.2122 -118.6322 125° Southeast 214 246 4,000 -538 Descending Los Angeles Center
Sun 11:35:46 PM 34.2000 -118.6167 134° Southeast 190 219 4,000  Level Southern California TRACON
Sun 11:36:46 PM 34.2000 -118.5667 90° East 159 183 4,000 -450 Level Southern California TRACON
Sun 11:37:46 PM 34.2000 -118.5000 90° East 158 182 3,100 -842 Descending Southern California TRACON
Sun 11:38:40 PM 34.2000 -118.4667 90° East 147 169 2,400 -842 Descending Southern California TRACON
Sun 11:39:40 PM 34.2000 -118.4167 90° East 139 160 1,500 -508 Descending Southern California TRACON
Sun 11:41:37 PM 34.1992 -118.3419 91° East 146 168 900 -308 Descending Los Angeles Center

Login

Don't have an account? Register now (free) for customized features, flight alerts, and more!